createdAt,value
2022-09-29T00:00:45.058Z,14.45345
2022-09-29T00:05:46.792Z,15.063198
2022-09-29T00:10:48.531Z,14.896374
2022-09-29T00:15:50.330Z,14.77783
2022-09-29T00:20:52.096Z,14.823736
2022-09-29T00:25:53.864Z,14.838392
2022-09-29T00:30:55.812Z,14.92639
2022-09-29T00:35:57.543Z,14.626014
2022-09-29T00:40:59.336Z,14.744286
2022-09-29T00:46:01.082Z,14.555832
2022-09-29T00:51:02.583Z,14.67173
2022-09-29T00:56:04.016Z,14.875802
2022-09-29T01:01:05.794Z,14.244072
2022-09-29T01:06:07.376Z,14.371178
2022-09-29T01:11:08.896Z,14.718246
2022-09-29T01:16:10.706Z,14.015724
2022-09-29T01:21:12.496Z,13.881562
2022-09-29T01:26:14.124Z,14.157404
2022-09-29T01:31:16.094Z,14.191992
2022-09-29T01:36:17.717Z,14.416284
2022-09-29T01:41:19.462Z,14.28318
2022-09-29T01:46:21.200Z,13.293702
2022-09-29T01:51:22.819Z,13.949628
2022-09-29T01:56:24.496Z,13.966834
2022-09-29T02:01:26.341Z,13.76515
2022-09-29T02:06:28.055Z,13.171998
2022-09-29T02:11:29.674Z,13.653052
2022-09-29T02:16:31.432Z,13.220536
2022-09-29T02:21:33.128Z,13.118588
2022-09-29T02:26:34.750Z,13.491696
2022-09-29T02:31:36.656Z,13.335022
2022-09-29T02:36:38.448Z,13.20333
2022-09-29T02:41:40.161Z,12.719792
2022-09-29T02:46:41.958Z,13.119036
2022-09-29T02:51:43.662Z,12.449094
2022-09-29T02:56:45.403Z,13.713952
2022-09-29T03:01:47.373Z,13.74485
2022-09-29T03:06:49.143Z,12.380418
2022-09-29T03:11:50.893Z,13.045326
2022-09-29T03:16:52.627Z,12.476016
2022-09-29T03:21:54.453Z,13.421786
2022-09-29T03:26:56.191Z,13.225828
2022-09-29T03:31:58.112Z,12.615036
2022-09-29T03:36:59.543Z,12.426582
2022-09-29T03:42:00.968Z,13.109592
2022-09-29T03:47:02.629Z,12.56913
2022-09-29T03:52:04.200Z,12.765698
2022-09-29T03:57:05.955Z,12.373348
2022-09-29T04:02:07.963Z,12.45676
2022-09-29T04:07:09.495Z,12.826422
2022-09-29T04:12:10.942Z,12.716102
2022-09-29T04:17:12.615Z,12.442296
2022-09-29T04:22:14.252Z,12.646802
2022-09-29T04:27:15.858Z,13.14992
2022-09-29T04:32:17.816Z,13.09476
2022-09-29T04:37:19.391Z,13.611122
2022-09-29T04:42:21.117Z,13.62161
2022-09-29T04:47:22.800Z,13.716054
2022-09-29T04:52:24.561Z,13.581892
2022-09-29T04:57:26.325Z,13.818016
2022-09-29T05:02:28.369Z,14.887106
2022-09-29T05:07:30.151Z,15.968138
2022-09-29T05:12:31.919Z,15.687438
2022-09-29T05:17:33.358Z,16.247956
2022-09-29T05:22:34.825Z,16.202402
2022-09-29T05:27:36.268Z,16.51533
2022-09-29T05:32:37.887Z,16.827362
2022-09-29T05:37:39.361Z,16.840606
2022-09-29T05:42:40.818Z,17.28258
2022-09-29T05:47:42.365Z,17.743348
2022-09-29T05:52:43.775Z,17.358746
2022-09-29T05:57:45.422Z,18.265912
2022-09-29T06:02:47.422Z,18.622086
2022-09-29T06:07:49.003Z,18.91394
2022-09-29T06:12:50.456Z,19.293766
2022-09-29T06:17:51.921Z,19.607386
2022-09-29T06:22:53.732Z,20.061492
2022-09-29T06:27:55.303Z,19.564316
2022-09-29T06:32:57.120Z,20.013374
2022-09-29T06:37:58.595Z,20.881732
2022-09-29T06:43:00.239Z,21.325946
2022-09-29T06:48:01.845Z,20.995798
2022-09-29T06:53:04.611Z,21.729804
2022-09-29T06:58:06.617Z,22.086874
2022-09-29T07:03:08.382Z,22.804936
2022-09-29T07:08:10.240Z,22.973104
2022-09-29T07:13:11.665Z,22.888796
2022-09-29T07:18:13.394Z,22.672076
2022-09-29T07:23:15.144Z,23.750764
2022-09-29T07:28:16.888Z,23.487256
2022-09-29T07:33:29.401Z,24.018248
2022-09-29T07:38:37.210Z,24.16518
2022-09-29T07:43:38.991Z,24.989696
2022-09-29T07:48:40.848Z,25.657958
2022-09-29T07:53:42.640Z,25.412538
2022-09-29T07:58:44.474Z,25.383892
2022-09-29T08:03:46.472Z,25.625486
2022-09-29T08:08:57.751Z,26.28117
2022-09-29T08:14:01.446Z,25.978852
2022-09-29T08:19:03.054Z,25.303724
2022-09-29T08:24:04.519Z,26.238832
2022-09-29T08:29:08.141Z,26.836438
2022-09-29T08:34:10.403Z,26.574694
2022-09-29T08:39:11.849Z,26.34184
2022-09-29T08:44:30.577Z,26.495678
2022-09-29T08:49:36.670Z,27.247788
2022-09-29T08:54:39.499Z,27.771968
2022-09-29T08:59:41.541Z,27.460994
2022-09-29T09:04:43.201Z,27.866196
2022-09-29T09:09:44.871Z,27.833264
2022-09-29T09:14:46.555Z,28.52298
2022-09-29T09:19:48.528Z,28.803274
2022-09-29T09:24:50.403Z,27.272716
2022-09-29T09:29:52.182Z,27.850754
2022-09-29T09:40:04.386Z,28.080692
2022-09-29T09:45:05.823Z,28.207404
2022-09-29T09:50:07.260Z,27.861312
2022-09-29T09:55:08.907Z,28.948496
2022-09-29T10:00:10.666Z,29.543524
2022-09-29T10:05:12.327Z,28.235182
2022-09-29T10:10:14.165Z,29.752306
2022-09-29T10:15:16.279Z,28.35283
2022-09-29T10:20:17.962Z,29.754274
2022-09-29T10:25:19.614Z,27.814076
2022-09-29T10:30:21.334Z,28.570216
2022-09-29T10:35:22.958Z,29.630004
2022-09-29T10:40:25.320Z,29.278672
2022-09-29T10:45:27.002Z,29.572184
2022-09-29T10:50:31.010Z,28.628918
2022-09-29T10:55:35.027Z,29.617004
2022-09-29T11:00:36.840Z,29.940762
2022-09-29T11:05:38.558Z,29.4839
2022-09-29T11:10:40.539Z,28.54328
2022-09-29T11:15:42.264Z,29.242008
2022-09-29T11:20:43.984Z,29.404002
2022-09-29T11:25:45.722Z,30.15044
2022-09-29T11:30:47.459Z,28.337144
2022-09-29T11:35:49.194Z,29.794428
2022-09-29T11:40:51.443Z,29.437994
2022-09-29T11:45:53.258Z,29.956218
2022-09-29T11:50:55.004Z,29.900136
2022-09-29T11:55:57.192Z,28.772784
2022-09-29T12:00:58.979Z,29.065684
2022-09-29T12:06:00.722Z,29.912076
2022-09-29T12:11:17.925Z,30.065224
2022-09-29T12:16:25.763Z,29.067882
2022-09-29T12:21:27.343Z,28.874338
2022-09-29T12:26:28.917Z,28.103882
2022-09-29T12:31:30.382Z,29.59205
2022-09-29T12:36:31.921Z,29.632446
2022-09-29T12:41:33.637Z,28.91297
2022-09-29T12:46:35.521Z,28.7194
2022-09-29T12:51:37.030Z,29.220826
2022-09-29T12:56:38.676Z,29.47113
2022-09-29T13:01:40.200Z,28.966802
2022-09-29T13:06:41.672Z,29.03389
2022-09-29T13:11:43.661Z,29.019534
2022-09-29T13:16:45.158Z,29.380404
2022-09-29T13:21:46.730Z,28.832842
2022-09-29T13:26:48.300Z,28.934574
2022-09-29T13:31:49.851Z,28.82025
2022-09-29T13:36:51.321Z,28.55476
2022-09-29T13:41:52.953Z,28.571328
2022-09-29T13:46:54.461Z,28.530036
2022-09-29T13:51:56.025Z,28.948266
2022-09-29T13:56:57.764Z,28.000142
2022-09-29T14:01:59.933Z,28.289244
2022-09-29T14:07:01.770Z,28.873904
2022-09-29T14:12:03.564Z,27.956448
2022-09-29T14:17:05.011Z,28.113762
2022-09-29T14:22:06.442Z,27.94277
2022-09-29T14:27:08.252Z,27.53579
2022-09-29T14:32:09.777Z,27.465608
2022-09-29T14:37:11.265Z,27.498922
2022-09-29T14:42:13.105Z,27.911398
2022-09-29T14:47:14.845Z,27.660916
2022-09-29T14:52:16.623Z,27.75361
2022-09-29T14:57:18.413Z,27.364528
2022-09-29T15:02:20.191Z,26.647686
2022-09-29T15:07:21.946Z,26.712372
2022-09-29T15:12:23.912Z,26.865532
2022-09-29T15:17:25.618Z,26.52081
2022-09-29T15:22:27.353Z,26.052482
2022-09-29T15:27:29.102Z,25.277834
2022-09-29T15:32:30.647Z,25.449136
2022-09-29T15:37:32.381Z,25.535642
2022-09-29T15:42:34.307Z,25.256244
2022-09-29T15:47:36.033Z,24.969138
2022-09-29T15:52:37.586Z,24.908428
2022-09-29T15:57:39.499Z,24.546052
2022-09-29T16:02:41.187Z,24.414318
2022-09-29T16:07:42.935Z,24.279938
2022-09-29T16:12:44.745Z,23.599952
2022-09-29T16:17:46.405Z,23.778962
2022-09-29T16:22:48.043Z,23.46028
2022-09-29T16:27:49.791Z,22.815426
2022-09-29T16:32:51.427Z,22.709488
2022-09-29T16:37:53.191Z,22.402734
2022-09-29T16:42:55.249Z,22.652116
2022-09-29T16:47:57.197Z,22.370126
2022-09-29T16:52:58.721Z,21.997342
2022-09-29T16:58:00.625Z,22.298614
2022-09-29T17:03:02.408Z,21.823692
2022-09-29T17:08:04.060Z,21.677154
2022-09-29T17:13:06.126Z,21.257664
2022-09-29T17:18:07.667Z,21.143096
2022-09-29T17:23:09.111Z,21.074488
2022-09-29T17:28:10.653Z,21.039424
2022-09-29T17:33:12.184Z,20.436894
2022-09-29T17:38:13.811Z,20.848948
2022-09-29T17:43:15.823Z,20.934572
2022-09-29T17:48:17.771Z,20.679708
2022-09-29T17:53:19.418Z,20.993532
2022-09-29T17:58:21.226Z,20.95494
2022-09-29T18:03:22.981Z,20.36678
2022-09-29T18:08:24.765Z,20.344716
2022-09-29T18:13:26.788Z,20.491688
2022-09-29T18:18:28.554Z,20.99265
2022-09-29T18:23:30.304Z,20.97197
2022-09-29T18:28:32.155Z,20.1558
2022-09-29T18:33:33.921Z,20.399944
2022-09-29T18:38:35.676Z,20.26703
2022-09-29T18:43:37.624Z,20.211232
2022-09-29T18:48:39.407Z,20.711108
2022-09-29T18:53:41.151Z,20.402156
2022-09-29T18:58:42.918Z,20.106882
2022-09-29T19:03:44.688Z,19.583232
2022-09-29T19:08:46.455Z,19.133916
2022-09-29T19:13:48.595Z,20.04339
2022-09-29T19:18:50.312Z,19.36388
2022-09-29T19:23:52.054Z,19.512168
2022-09-29T19:28:53.925Z,19.690744
2022-09-29T19:33:55.715Z,19.131528
2022-09-29T19:38:57.596Z,19.068416
2022-09-29T19:44:00.018Z,18.968666
2022-09-29T19:49:01.841Z,19.400314
2022-09-29T19:54:03.586Z,19.35681
2022-09-29T19:59:10.111Z,18.973076
2022-09-29T20:04:11.869Z,19.200828
2022-09-29T20:09:13.388Z,19.426802
2022-09-29T20:14:15.177Z,19.51419
2022-09-29T20:19:16.665Z,19.594074
2022-09-29T20:24:18.222Z,18.813756
2022-09-29T20:29:20.017Z,18.37018
2022-09-29T20:34:21.915Z,17.99106
2022-09-29T20:39:23.773Z,18.038092
2022-09-29T20:44:26.035Z,17.350468
2022-09-29T20:49:27.751Z,17.305444
2022-09-29T20:54:29.396Z,17.591084
2022-09-29T20:59:31.150Z,17.429986
2022-09-29T21:04:32.816Z,17.249646
2022-09-29T21:09:34.470Z,16.912022
2022-09-29T21:14:36.489Z,16.701938
2022-09-29T21:19:38.095Z,16.37692
2022-09-29T21:24:40.016Z,16.952446
2022-09-29T21:29:41.926Z,16.346904
2022-09-29T21:34:43.555Z,16.409406
2022-09-29T21:39:44.981Z,16.085188
2022-09-29T21:44:46.793Z,16.713486
2022-09-29T21:49:48.434Z,16.229772
2022-09-29T21:54:50.093Z,16.454158
2022-09-29T21:59:51.850Z,16.145288
2022-09-29T22:04:53.570Z,15.877574
2022-09-29T22:09:55.301Z,15.370466
2022-09-29T22:14:57.146Z,15.780566
2022-09-29T22:19:58.857Z,15.773414
2022-09-29T22:25:00.624Z,15.337804
2022-09-29T22:30:02.294Z,16.031426
2022-09-29T22:35:04.054Z,15.584526
2022-09-29T22:40:05.621Z,14.71374
2022-09-29T22:45:07.451Z,15.190656
2022-09-29T22:50:09.313Z,15.447528
2022-09-29T22:55:10.800Z,15.102834
2022-09-29T23:00:12.556Z,14.969812
2022-09-29T23:05:14.304Z,14.780476
2022-09-29T23:10:16.185Z,14.675706
2022-09-29T23:15:17.803Z,15.290502
2022-09-29T23:20:19.566Z,14.82744
2022-09-29T23:25:21.131Z,14.727514
2022-09-29T23:30:22.664Z,14.364908
2022-09-29T23:35:24.125Z,14.24566
2022-09-29T23:40:25.605Z,14.793992
2022-09-29T23:45:27.660Z,14.532276
2022-09-29T23:50:29.239Z,13.708998
2022-09-29T23:55:30.693Z,13.411092
